Time;durP1;ratioP1;P1;durP2;ratioP2;P2;SDS_P1;SDS_P2;PMS_P1;PMS_P2;Temp;Humidity;BMP_temperature;BMP_pressure;BME280_temperature;BME280_humidity;BME280_pressure;Samples;Min_cycle;Max_cycle;Signal;HPM_P1;HPM_P2
2022/08/14 00:00:16;;;;;;;;;;;;;;;-145.18;100.00;47031.53;4994225;28;19922;-70
2022/08/14 00:02:41;;;;;;;;;;;;;;;-145.18;100.00;46910.44;4993083;28;20403;-70
2022/08/14 00:05:08;;;;;;;;;;;;;;;-145.18;100.00;47123.38;4994026;28;19929;-70
2022/08/14 00:07:34;;;;;;;;;;;;;;;-145.18;100.00;47139.00;4993416;28;20020;-70
2022/08/14 00:09:59;;;;;;;;;;;;;;;-145.18;100.00;47148.75;4993801;28;19930;-70
2022/08/14 00:12:25;;;;;;;;;;;;;;;-145.18;100.00;47137.03;4993307;28;19922;-70
2022/08/14 00:14:51;;;;;;;;;;;;;;;-145.18;100.00;47115.56;4993501;28;19929;-70
2022/08/14 00:17:16;;;;;;;;;;;;;;;-145.18;100.00;46971.00;4993498;28;20016;-70
2022/08/14 00:19:41;;;;;;;;;;;;;;;-145.18;100.00;46752.19;4993783;28;19924;-70
2022/08/14 00:22:06;;;;;;;;;;;;;;;-145.18;100.00;46701.41;4993382;28;20711;-70
2022/08/14 00:24:32;;;;;;;;;;;;;;;-145.18;100.00;46605.69;4993450;28;19937;-70
2022/08/14 00:26:57;;;;;;;;;;;;;;;-145.18;100.00;46625.22;4993284;28;19949;-70
2022/08/14 00:29:23;;;;;;;;;;;;;;;-145.18;100.00;46652.59;4993697;28;19980;-69
2022/08/14 00:31:48;;;;;;;;;;;;;;;-145.18;100.00;46586.16;4992937;28;19918;-70
2022/08/14 00:34:13;;;;;;;;;;;;;;;-145.18;100.00;46541.25;4993523;28;19925;-70
2022/08/14 00:36:38;;;;;;;;;;;;;;;-145.18;100.00;46527.56;4992671;28;19930;-69
2022/08/14 00:39:04;;;;;;;;;;;;;;;-145.18;100.00;46513.91;4993497;28;20302;-69
2022/08/14 00:41:30;;;;;;;;;;;;;;;-145.18;100.00;46504.13;4992777;28;20286;-69
2022/08/14 00:43:56;;;;;;;;;;;;;;;-145.18;100.00;46504.13;4993005;28;19918;-69
2022/08/14 00:46:21;;;;;;;;;;;;;;;-145.18;100.00;46511.94;4993214;28;19949;-69
2022/08/14 00:48:47;;;;;;;;;;;;;;;-145.18;100.00;46506.09;4992472;28;20363;-69
2022/08/14 00:51:13;;;;;;;;;;;;;;;-145.18;100.00;46515.84;4993235;28;19929;-68
2022/08/14 00:53:38;;;;;;;;;;;;;;;-145.18;100.00;46511.94;4992437;28;20298;-69
2022/08/14 00:56:05;;;;;;;;;;;;;;;-145.18;100.00;46525.63;4993109;28;19925;-68
2022/08/14 00:58:30;;;;;;;;;;;;;;;-145.18;100.00;46511.94;4992010;28;19926;-69
2022/08/14 01:01:00;;;;;;;;;;;;;;;-145.18;100.00;46521.72;4992685;28;19928;-69
2022/08/14 01:03:28;;;;;;;;;;;;;;;-145.18;100.00;46519.75;4992302;28;19922;-69
2022/08/14 01:05:54;;;;;;;;;;;;;;;-145.18;100.00;46531.47;4992739;28;20020;-68
2022/08/14 01:08:21;;;;;;;;;;;;;;;-145.18;100.00;46508.03;4992576;28;19922;-69
2022/08/14 01:10:50;;;;;;;;;;;;;;;-145.18;100.00;46515.84;4992491;28;19918;-69
2022/08/14 01:13:18;;;;;;;;;;;;;;;-145.18;100.00;46523.66;4992471;28;20314;-68
2022/08/14 01:15:44;;;;;;;;;;;;;;;-145.18;100.00;46508.03;4992452;28;19922;-69
2022/08/14 01:21:05;;;;;;;;;;;;;;;-145.18;100.00;46511.94;4992530;28;19933;-69
2022/08/14 01:23:30;;;;;;;;;;;;;;;-145.18;100.00;46508.03;4992394;28;19971;-68
2022/08/14 01:25:57;;;;;;;;;;;;;;;-145.18;100.00;46519.75;4992268;28;19917;-69
2022/08/14 01:28:23;;;;;;;;;;;;;;;-145.18;100.00;46500.22;4992097;28;20378;-69
2022/08/14 01:30:54;;;;;;;;;;;;;;;-145.18;100.00;46486.56;4992233;28;19976;-69
2022/08/14 01:33:21;;;;;;;;;;;;;;;-145.18;100.00;46492.41;4992313;28;19972;-69
2022/08/14 01:35:46;;;;;;;;;;;;;;;-145.18;100.00;46492.41;4991941;28;19917;-69
2022/08/14 01:38:13;;;;;;;;;;;;;;;-145.18;100.00;46492.41;4991886;28;20064;-69
2022/08/14 01:40:39;;;;;;;;;;;;;;;-145.18;100.00;46486.56;4990913;28;20012;-69
2022/08/14 01:43:16;;;;;;;;;;;;;;;-145.18;100.00;46484.59;4991856;28;20407;-68
2022/08/14 01:45:43;;;;;;;;;;;;;;;-145.18;100.00;46488.50;4991880;28;19928;-68
2022/08/14 01:48:08;;;;;;;;;;;;;;;-145.18;100.00;46498.28;4991768;28;19924;-68
2022/08/14 01:50:34;;;;;;;;;;;;;;;-145.18;100.00;46492.41;4991829;28;19925;-68
2022/08/14 01:52:59;;;;;;;;;;;;;;;-145.18;100.00;46484.59;4991635;28;19936;-68
2022/08/14 01:55:30;;;;;;;;;;;;;;;-145.18;100.00;46488.50;4992033;28;20326;-68
2022/08/14 01:57:56;;;;;;;;;;;;;;;-145.18;100.00;46492.41;4991482;28;20052;-68
2022/08/14 02:02:58;;;;;;;;;;;;;;;-145.18;100.00;46488.50;5439313;22;19933;-68
2022/08/14 02:05:28;;;;;;;;;;;;;;;-145.18;100.00;46492.41;5051476;28;19932;-68
2022/08/14 02:07:54;;;;;;;;;;;;;;;-145.18;100.00;46492.41;5050410;28;20019;-68
2022/08/14 02:10:20;;;;;;;;;;;;;;;-145.18;100.00;46488.50;5050599;28;19924;-68
2022/08/14 02:12:45;;;;;;;;;;;;;;;-145.18;100.00;46496.31;5050399;28;19974;-68
2022/08/14 02:15:11;;;;;;;;;;;;;;;-145.18;100.00;46492.41;5051109;28;20281;-68
2022/08/14 02:17:37;;;;;;;;;;;;;;;-145.18;100.00;46506.09;5050982;28;19920;-68
2022/08/14 02:20:03;;;;;;;;;;;;;;;-145.18;100.00;46496.31;5050746;28;19924;-68
2022/08/14 02:22:28;;;;;;;;;;;;;;;-145.18;100.00;46496.31;5050584;28;19929;-67
2022/08/14 02:24:53;;;;;;;;;;;;;;;-145.18;100.00;46504.13;5050844;28;19979;-67
2022/08/14 02:27:19;;;;;;;;;;;;;;;-145.18;100.00;46496.31;5050399;28;20371;-68
2022/08/14 02:29:44;;;;;;;;;;;;;;;-145.18;100.00;46500.22;5050989;28;19931;-68
2022/08/14 02:32:10;;;;;;;;;;;;;;;-145.18;100.00;46504.13;5050644;28;20308;-67
2022/08/14 02:34:37;;;;;;;;;;;;;;;-145.18;100.00;46492.41;5050741;28;19929;-67
2022/08/14 02:37:08;;;;;;;;;;;;;;;-145.18;100.00;46492.41;5050543;28;19931;-70
2022/08/14 02:39:40;;;;;;;;;;;;;;;-145.18;100.00;46510.00;5050877;28;19916;-68
2022/08/14 02:42:07;;;;;;;;;;;;;;;-145.18;100.00;46498.28;5050259;28;19920;-68
2022/08/14 02:44:33;;;;;;;;;;;;;;;-145.18;100.00;46500.22;5050893;28;20396;-68
2022/08/14 02:46:59;;;;;;;;;;;;;;;-145.18;100.00;46504.13;5050081;28;19924;-68
2022/08/14 02:49:27;;;;;;;;;;;;;;;-145.18;100.00;46502.19;5050666;28;19956;-68
2022/08/14 02:51:54;;;;;;;;;;;;;;;-145.18;100.00;46502.19;5050063;28;20378;-68
2022/08/14 02:54:21;;;;;;;;;;;;;;;-145.18;100.00;46500.22;5050712;28;20452;-68
2022/08/14 02:56:47;;;;;;;;;;;;;;;-145.18;100.00;46504.13;5050160;28;19917;-67
2022/08/14 02:59:13;;;;;;;;;;;;;;;-145.18;100.00;46510.00;5048975;28;19924;-68
2022/08/14 03:01:39;;;;;;;;;;;;;;;-145.18;100.00;46511.94;5050569;28;20385;-67
2022/08/14 03:04:04;;;;;;;;;;;;;;;-145.18;100.00;46506.09;5048760;28;20214;-68
2022/08/14 03:06:30;;;;;;;;;;;;;;;-145.18;100.00;46506.09;5050588;28;20284;-67
2022/08/14 03:08:56;;;;;;;;;;;;;;;-145.18;100.00;46500.22;5048589;28;19921;-68
2022/08/14 03:11:21;;;;;;;;;;;;;;;-145.18;100.00;46500.22;5050361;28;20327;-68
2022/08/14 03:13:50;;;;;;;;;;;;;;;-145.18;100.00;46502.19;5049956;28;19927;-68
2022/08/14 03:16:16;;;;;;;;;;;;;;;-145.18;100.00;46502.19;5050892;28;19970;-68
2022/08/14 03:18:42;;;;;;;;;;;;;;;-145.18;100.00;46492.41;5049900;28;19920;-68
2022/08/14 03:21:08;;;;;;;;;;;;;;;-145.18;100.00;46508.03;5052610;28;20262;-68
2022/08/14 03:23:35;;;;;;;;;;;;;;;-145.18;100.00;46502.19;5053997;28;19995;-68
2022/08/14 03:26:02;;;;;;;;;;;;;;;-145.18;100.00;46504.13;5053876;28;19931;-68
2022/08/14 03:28:28;;;;;;;;;;;;;;;-145.18;100.00;46500.22;5053608;28;19917;-68
2022/08/14 03:30:53;;;;;;;;;;;;;;;-145.18;100.00;46502.19;5053839;28;19944;-68
2022/08/14 03:33:19;;;;;;;;;;;;;;;-145.18;100.00;46506.09;5052161;28;19947;-67
2022/08/14 03:35:44;;;;;;;;;;;;;;;-145.18;100.00;46506.09;5054042;28;19964;-68
2022/08/14 03:38:10;;;;;;;;;;;;;;;-145.18;100.00;46504.13;5053281;28;19978;-67
2022/08/14 03:40:39;;;;;;;;;;;;;;;-145.18;100.00;46506.09;5053657;28;20377;-68
2022/08/14 03:43:08;;;;;;;;;;;;;;;-145.18;100.00;46500.22;5053143;28;19924;-68
2022/08/14 03:45:34;;;;;;;;;;;;;;;-145.18;100.00;46502.19;5053711;28;19924;-70
2022/08/14 03:48:00;;;;;;;;;;;;;;;-145.18;100.00;46506.09;5053153;28;20402;-70
2022/08/14 03:50:26;;;;;;;;;;;;;;;-145.18;100.00;46502.19;5053610;28;19920;-70
2022/08/14 03:52:51;;;;;;;;;;;;;;;-145.18;100.00;46506.09;5052952;28;19923;-68
2022/08/14 03:55:16;;;;;;;;;;;;;;;-145.18;100.00;46504.13;5053547;28;19932;-67
2022/08/14 03:57:42;;;;;;;;;;;;;;;-145.18;100.00;46502.19;5053163;28;20026;-70
2022/08/14 04:00:09;;;;;;;;;;;;;;;-145.18;100.00;46502.19;5053328;28;19924;-70
2022/08/14 04:02:37;;;;;;;;;;;;;;;-145.18;100.00;46508.03;5052712;28;19921;-69
2022/08/14 04:05:03;;;;;;;;;;;;;;;-145.18;100.00;46508.03;5053083;28;19924;-70
2022/08/14 04:07:28;;;;;;;;;;;;;;;-145.18;100.00;46506.09;5053107;28;19968;-70
2022/08/14 04:09:54;;;;;;;;;;;;;;;-145.18;100.00;46502.19;5053160;28;19947;-69
2022/08/14 04:12:20;;;;;;;;;;;;;;;-145.18;100.00;46506.09;5053020;28;19921;-70
2022/08/14 04:14:45;;;;;;;;;;;;;;;-145.18;100.00;46508.03;5053167;28;20315;-69
2022/08/14 04:17:11;;;;;;;;;;;;;;;-145.18;100.00;46502.19;5051623;28;19920;-70
2022/08/14 04:19:38;;;;;;;;;;;;;;;-145.18;100.00;46506.09;5052999;28;19927;-70
2022/08/14 04:22:03;;;;;;;;;;;;;;;-145.18;100.00;46500.22;5052574;28;19927;-69
2022/08/14 04:24:29;;;;;;;;;;;;;;;-145.18;100.00;46502.19;5052853;28;19917;-69
2022/08/14 04:26:54;;;;;;;;;;;;;;;-145.18;100.00;46506.09;5052658;28;19925;-70
2022/08/14 04:29:20;;;;;;;;;;;;;;;-145.18;100.00;46510.00;5052571;28;19924;-70
2022/08/14 04:31:45;;;;;;;;;;;;;;;-145.18;100.00;46511.94;5051885;28;19968;-70
2022/08/14 04:34:11;;;;;;;;;;;;;;;-145.18;100.00;46510.00;5051273;28;19966;-70
2022/08/14 04:43:34;;;;;;;;;;;;;;;-145.18;100.00;46504.13;5051298;28;20335;-70
2022/08/14 04:44:49;;;;;;;;;;;;;;;-145.18;100.00;46510.00;5052541;28;19962;-69
2022/08/14 04:50:02;;;;;;;;;;;;;;;-145.18;100.00;46511.94;5052545;28;19932;-69
2022/08/14 04:52:27;;;;;;;;;;;;;;;-145.18;100.00;46506.09;5052048;28;19924;-70
2022/08/14 04:54:52;;;;;;;;;;;;;;;-145.18;100.00;46515.84;5052007;28;19925;-70
2022/08/14 04:57:17;;;;;;;;;;;;;;;-145.18;100.00;46511.94;5051844;28;20381;-69
2022/08/14 04:59:43;;;;;;;;;;;;;;;-145.18;100.00;46513.91;5052221;28;19925;-70
2022/08/14 05:02:08;;;;;;;;;;;;;;;-145.18;100.00;46506.09;5051723;28;19925;-69
2022/08/14 05:04:33;;;;;;;;;;;;;;;-145.18;100.00;46508.03;5050807;28;19972;-70
2022/08/14 05:06:58;;;;;;;;;;;;;;;-145.18;100.00;46508.03;5051942;28;19947;-69
2022/08/14 05:09:24;;;;;;;;;;;;;;;-145.18;100.00;46504.13;5050166;28;19921;-70
2022/08/14 05:11:49;;;;;;;;;;;;;;;-145.18;100.00;46504.13;5052180;28;19962;-70
2022/08/14 05:14:15;;;;;;;;;;;;;;;-145.18;100.00;46506.09;5051933;28;19927;-69
2022/08/14 05:16:40;;;;;;;;;;;;;;;-145.18;100.00;46496.31;5051691;28;19916;-70
2022/08/14 05:19:07;;;;;;;;;;;;;;;-145.18;100.00;46506.09;5051192;28;19982;-70
2022/08/14 05:21:33;;;;;;;;;;;;;;;-145.18;100.00;46504.13;5051907;28;19917;-69
2022/08/14 05:23:58;;;;;;;;;;;;;;;-145.18;100.00;46500.22;5051240;28;20354;-70
2022/08/14 05:26:24;;;;;;;;;;;;;;;-145.18;100.00;46500.22;5051808;28;20289;-70
2022/08/14 05:28:49;;;;;;;;;;;;;;;-145.18;100.00;46502.19;5051147;28;19925;-70
2022/08/14 05:31:18;;;;;;;;;;;;;;;-145.18;100.00;46504.13;5051650;28;19921;-69
2022/08/14 05:33:44;;;;;;;;;;;;;;;-145.18;100.00;46498.28;5051531;28;19939;-70
2022/08/14 05:36:10;;;;;;;;;;;;;;;-145.18;100.00;46504.13;5051242;28;20392;-69
2022/08/14 05:38:40;;;;;;;;;;;;;;;-145.18;100.00;46510.00;5051233;28;19939;-69
2022/08/14 05:41:07;;;;;;;;;;;;;;;-145.18;100.00;46502.19;5051486;28;20387;-70
2022/08/14 05:43:32;;;;;;;;;;;;;;;-145.18;100.00;46504.13;5051230;28;19913;-68
2022/08/14 05:45:58;;;;;;;;;;;;;;;-145.18;100.00;46510.00;5051150;28;20414;-68
2022/08/14 05:48:23;;;;;;;;;;;;;;;-145.18;100.00;46511.94;5051114;28;19912;-68
2022/08/14 05:50:49;;;;;;;;;;;;;;;-145.18;100.00;46502.19;5051356;28;20394;-68
2022/08/14 05:53:14;;;;;;;;;;;;;;;-145.18;100.00;46506.09;5051131;28;20015;-70
2022/08/14 05:55:39;;;;;;;;;;;;;;;-145.18;100.00;46506.09;5049987;28;19917;-70
2022/08/14 05:58:05;;;;;;;;;;;;;;;-145.18;100.00;46502.19;5051074;28;20019;-70
2022/08/14 06:00:34;;;;;;;;;;;;;;;-145.18;100.00;46500.22;5051326;28;20007;-68
2022/08/14 06:03:00;;;;;;;;;;;;;;;-145.18;100.00;46508.03;5050286;28;20408;-68
2022/08/14 06:05:26;;;;;;;;;;;;;;;-145.18;100.00;46508.03;5051281;28;19920;-68
2022/08/14 06:07:51;;;;;;;;;;;;;;;-145.18;100.00;46498.28;5050764;28;20377;-68
2022/08/14 06:10:16;;;;;;;;;;;;;;;-145.18;100.00;46510.00;5051221;28;19942;-68
2022/08/14 06:12:42;;;;;;;;;;;;;;;-145.18;100.00;46502.19;5050483;28;20377;-68
2022/08/14 06:15:08;;;;;;;;;;;;;;;-145.18;100.00;46504.13;5051006;28;20305;-68
2022/08/14 06:17:50;;;;;;;;;;;;;;;-145.18;100.00;46502.19;5050887;28;19956;-68
2022/08/14 06:20:16;;;;;;;;;;;;;;;-145.18;100.00;46500.22;5051025;28;19963;-68
2022/08/14 06:22:41;;;;;;;;;;;;;;;-145.18;100.00;46500.22;5050556;28;20023;-68
2022/08/14 06:25:07;;;;;;;;;;;;;;;-145.18;100.00;46496.31;5051016;28;19917;-70
2022/08/14 06:27:39;;;;;;;;;;;;;;;-145.18;100.00;46498.28;5050746;28;19917;-68
2022/08/14 06:30:06;;;;;;;;;;;;;;;-145.18;100.00;46500.22;5050735;28;20019;-68
2022/08/14 06:32:31;;;;;;;;;;;;;;;-145.18;100.00;46492.41;5050431;28;19924;-70
2022/08/14 06:34:56;;;;;;;;;;;;;;;-145.18;100.00;46490.47;5050407;28;19928;-70
2022/08/14 06:37:22;;;;;;;;;;;;;;;-145.18;100.00;46502.19;5051041;28;20047;-68
2022/08/14 06:39:47;;;;;;;;;;;;;;;-145.18;100.00;46492.41;5050321;28;19925;-68
2022/08/14 06:42:12;;;;;;;;;;;;;;;-145.18;100.00;46494.38;5050701;28;19967;-68
2022/08/14 06:44:38;;;;;;;;;;;;;;;-145.18;100.00;46486.56;5050425;28;20640;-68
2022/08/14 06:47:03;;;;;;;;;;;;;;;-145.18;100.00;46492.41;5050546;28;20403;-68
2022/08/14 06:49:28;;;;;;;;;;;;;;;-145.18;100.00;46488.50;5050343;28;20452;-68
2022/08/14 06:51:54;;;;;;;;;;;;;;;-145.18;100.00;46484.59;5050692;28;19917;-70
2022/08/14 06:54:19;;;;;;;;;;;;;;;-145.18;100.00;46482.66;5050213;28;20401;-68
2022/08/14 06:56:45;;;;;;;;;;;;;;;-145.18;100.00;46484.59;5054161;28;19920;-69
2022/08/14 06:59:12;;;;;;;;;;;;;;;-145.18;100.00;46490.47;5052704;28;19931;-68
2022/08/14 07:07:05;;;;;;;;;;;;;;;-145.18;100.00;46478.75;5054584;28;20027;-68
2022/08/14 07:09:31;;;;;;;;;;;;;;;-145.18;100.00;46500.22;5054081;28;20019;-69
2022/08/14 07:11:56;;;;;;;;;;;;;;;-145.18;100.00;46480.69;5054685;28;19924;-69
2022/08/14 07:14:21;;;;;;;;;;;;;;;-145.18;100.00;46472.88;5053748;28;19917;-69
2022/08/14 07:16:46;;;;;;;;;;;;;;;-145.18;100.00;46486.56;5054190;28;19921;-69
2022/08/14 07:19:12;;;;;;;;;;;;;;;-145.18;100.00;46496.31;5053558;28;19928;-68
2022/08/14 07:21:38;;;;;;;;;;;;;;;-145.18;100.00;46492.41;5054282;28;20342;-69
2022/08/14 07:24:03;;;;;;;;;;;;;;;-145.18;100.00;46482.66;5053431;28;19928;-69
2022/08/14 07:26:29;;;;;;;;;;;;;;;-145.18;100.00;46506.09;5054175;28;19925;-69
2022/08/14 07:28:54;;;;;;;;;;;;;;;-145.18;100.00;46494.38;5053445;28;19921;-68
2022/08/14 07:31:19;;;;;;;;;;;;;;;-145.18;100.00;46504.13;5053894;28;20030;-69
2022/08/14 07:33:47;;;;;;;;;;;;;;;-145.18;100.00;46496.31;5053543;28;19921;-69
2022/08/14 07:36:14;;;;;;;;;;;;;;;-145.18;100.00;46484.59;5053885;28;19921;-69
2022/08/14 07:38:42;;;;;;;;;;;;;;;-145.18;100.00;46494.38;5053209;28;20599;-69
2022/08/14 07:41:09;;;;;;;;;;;;;;;-145.18;100.00;46492.41;5053790;28;19967;-68
2022/08/14 07:43:34;;;;;;;;;;;;;;;-145.18;100.00;46496.31;5053595;28;19917;-69
2022/08/14 07:45:59;;;;;;;;;;;;;;;-145.18;100.00;46472.88;5053576;28;20031;-69
2022/08/14 07:48:25;;;;;;;;;;;;;;;-145.18;100.00;46480.69;5053419;28;20007;-69
2022/08/14 07:50:50;;;;;;;;;;;;;;;-145.18;100.00;46476.78;5053581;28;20024;-69
2022/08/14 07:53:16;;;;;;;;;;;;;;;-145.18;100.00;46486.56;5052995;28;20389;-69
2022/08/14 07:55:42;;;;;;;;;;;;;;;-145.18;100.00;46486.56;5053516;28;20028;-69
2022/08/14 07:58:07;;;;;;;;;;;;;;;-145.18;100.00;46498.28;5052879;28;20023;-69
2022/08/14 08:00:33;;;;;;;;;;;;;;;-145.18;100.00;46562.72;5053265;28;19917;-69
2022/08/14 08:02:58;;;;;;;;;;;;;;;-145.18;100.00;46554.91;5051173;28;19937;-69
2022/08/14 08:05:24;;;;;;;;;;;;;;;-145.18;100.00;46492.41;5053381;28;19917;-69
2022/08/14 08:07:50;;;;;;;;;;;;;;;-145.18;100.00;46504.13;5052852;28;19923;-69
2022/08/14 08:10:32;;;;;;;;;;;;;;;-145.18;100.00;46496.31;5053081;28;19917;-69
2022/08/14 08:12:59;;;;;;;;;;;;;;;-145.18;100.00;46603.75;5052403;28;19924;-70
2022/08/14 08:15:25;;;;;;;;;;;;;;;-145.18;100.00;46508.03;5053262;28;19917;-69
2022/08/14 08:17:51;;;;;;;;;;;;;;;-145.18;100.00;46881.13;5052865;28;19971;-70
2022/08/14 08:20:18;;;;;;;;;;;;;;;-145.18;100.00;46758.06;5052761;28;20017;-70
2022/08/14 08:22:44;;;;;;;;;;;;;;;-145.18;100.00;46969.03;5053111;28;19943;-70
2022/08/14 08:25:09;;;;;;;;;;;;;;;-145.18;100.00;47053.03;5052322;28;20382;-70
2022/08/14 08:27:34;;;;;;;;;;;;;;;-145.18;100.00;47051.09;5052794;28;19920;-70
2022/08/14 08:30:08;;;;;;;;;;;;;;;-145.18;100.00;47058.91;5052238;28;19982;-70
2022/08/14 08:32:52;;;;;;;;;;;;;;;-145.18;100.00;47037.41;5052844;28;19921;-70
2022/08/14 08:35:19;;;;;;;;;;;;;;;-145.18;100.00;47047.19;5052282;28;19920;-69
2022/08/14 08:37:45;;;;;;;;;;;;;;;-145.18;100.00;47027.63;5052929;28;19916;-70
2022/08/14 08:40:20;;;;;;;;;;;;;;;-145.18;100.00;47031.53;5052009;28;19920;-70
2022/08/14 08:42:45;;;;;;;;;;;;;;;-145.18;100.00;46994.44;5052626;28;19935;-70
2022/08/14 08:45:14;;;;;;;;;;;;;;;-145.18;100.00;47006.16;5052089;28;19917;-70
2022/08/14 08:47:39;;;;;;;;;;;;;;;-145.18;100.00;46976.84;5052460;28;19944;-70
2022/08/14 08:50:14;;;;;;;;;;;;;;;-145.18;100.00;46976.84;5050619;28;20377;-70
2022/08/14 08:52:46;;;;;;;;;;;;;;;-145.18;100.00;46980.75;5052421;28;19917;-70
2022/08/14 08:55:11;;;;;;;;;;;;;;;-145.18;100.00;46945.59;5051834;28;19924;-70
2022/08/14 08:57:37;;;;;;;;;;;;;;;-145.18;100.00;46937.78;5052290;28;19932;-70
2022/08/14 09:00:10;;;;;;;;;;;;;;;-145.18;100.00;46931.91;5051580;28;20003;-70
2022/08/14 09:02:36;;;;;;;;;;;;;;;-145.18;100.00;46926.06;5051886;28;19928;-70
2022/08/14 09:05:02;;;;;;;;;;;;;;;-145.18;100.00;46920.19;5051486;28;19925;-70
2022/08/14 09:07:27;;;;;;;;;;;;;;;-145.18;100.00;46912.38;5052314;28;19963;-70
2022/08/14 09:09:55;;;;;;;;;;;;;;;-145.18;100.00;46922.16;5051711;28;19921;-70
2022/08/14 09:12:23;;;;;;;;;;;;;;;-145.18;100.00;46914.34;5050889;28;19962;-70
2022/08/14 09:14:51;;;;;;;;;;;;;;;-145.18;100.00;46914.34;5051650;28;20304;-70
2022/08/14 09:17:17;;;;;;;;;;;;;;;-145.18;100.00;46900.66;5051651;28;19959;-70
2022/08/14 09:19:43;;;;;;;;;;;;;;;-145.18;100.00;46910.44;5051116;28;19964;-70
2022/08/14 09:22:09;;;;;;;;;;;;;;;-145.18;100.00;46908.47;5051663;28;19944;-70
2022/08/14 09:24:35;;;;;;;;;;;;;;;-145.18;100.00;46902.63;5051692;28;20406;-70
2022/08/14 09:27:00;;;;;;;;;;;;;;;-145.18;100.00;46908.47;5051725;28;19979;-70
2022/08/14 09:29:25;;;;;;;;;;;;;;;-145.18;100.00;46898.72;5051480;28;19917;-70
2022/08/14 09:31:56;;;;;;;;;;;;;;;-145.18;100.00;46894.81;5051868;28;20299;-70
2022/08/14 09:34:40;;;;;;;;;;;;;;;-145.18;100.00;46900.66;5051420;28;19956;-70
2022/08/14 09:37:10;;;;;;;;;;;;;;;-145.18;100.00;46890.91;5051369;28;20118;-70
2022/08/14 09:39:42;;;;;;;;;;;;;;;-145.18;100.00;46898.72;5050000;28;19921;-71
2022/08/14 09:42:26;;;;;;;;;;;;;;;-145.18;100.00;46896.75;5051541;28;20063;-71
2022/08/14 09:45:03;;;;;;;;;;;;;;;-145.18;100.00;46898.72;5051141;28;20362;-70
2022/08/14 09:47:44;;;;;;;;;;;;;;;-145.18;100.00;46888.94;5050077;28;19921;-70
2022/08/14 09:50:18;;;;;;;;;;;;;;;-145.18;100.00;46879.19;5050665;28;19913;-70
2022/08/14 09:52:48;;;;;;;;;;;;;;;-145.18;100.00;46894.81;5051357;28;20019;-70
2022/08/14 09:55:17;;;;;;;;;;;;;;;-145.18;100.00;46883.09;5050741;28;20393;-70
2022/08/14 09:57:44;;;;;;;;;;;;;;;-145.18;100.00;46877.22;5051281;28;19913;-71
2022/08/14 10:00:11;;;;;;;;;;;;;;;-145.18;100.00;46881.13;5050499;28;19931;-71
2022/08/14 10:02:36;;;;;;;;;;;;;;;-145.18;100.00;46875.28;5050848;28;20420;-70
2022/08/14 10:05:24;;;;;;;;;;;;;;;-145.18;100.00;46867.44;5050653;28;19917;-70
2022/08/14 10:07:51;;;;;;;;;;;;;;;-145.18;100.00;46865.50;5047991;28;19971;-71
2022/08/14 10:10:32;;;;;;;;;;;;;;;-145.18;100.00;46861.59;5050797;28;20921;-71
2022/08/14 10:12:58;;;;;;;;;;;;;;;-145.18;100.00;46853.78;5050685;28;19927;-71
2022/08/14 10:15:25;;;;;;;;;;;;;;;-145.18;100.00;46851.81;5050881;28;19925;-70
2022/08/14 10:18:06;;;;;;;;;;;;;;;-145.18;100.00;46857.69;5051275;28;19913;-71
2022/08/14 10:20:32;;;;;;;;;;;;;;;-145.18;100.00;46853.78;5050584;28;19923;-71
2022/08/14 10:23:07;;;;;;;;;;;;;;;-145.18;100.00;46851.81;5050618;28;19928;-70
2022/08/14 10:25:38;;;;;;;;;;;;;;;-145.18;100.00;46844.00;5050743;28;20285;-71
2022/08/14 10:28:03;;;;;;;;;;;;;;;-145.18;100.00;46847.91;5050649;28;20038;-70
2022/08/14 10:30:33;;;;;;;;;;;;;;;-145.18;100.00;46836.19;5052234;28;19990;-71
2022/08/14 10:32:59;;;;;;;;;;;;;;;-145.18;100.00;46838.16;5054670;28;19929;-71
2022/08/14 10:35:24;;;;;;;;;;;;;;;-145.18;100.00;46834.25;5054702;28;19925;-71
2022/08/14 10:37:50;;;;;;;;;;;;;;;-145.18;100.00;46834.25;5054946;28;20273;-71
2022/08/14 10:40:26;;;;;;;;;;;;;;;-145.18;100.00;46824.47;5054282;28;20370;-71
2022/08/14 10:42:52;;;;;;;;;;;;;;;-145.18;100.00;46830.34;5055336;28;19917;-71
2022/08/14 10:45:22;;;;;;;;;;;;;;;-145.18;100.00;46826.44;5054428;28;19925;-71
2022/08/14 10:47:48;;;;;;;;;;;;;;;-145.18;100.00;46834.25;5055196;28;19913;-71
2022/08/14 10:50:14;;;;;;;;;;;;;;;-145.18;100.00;46834.25;5054067;28;19921;-72
2022/08/14 10:52:41;;;;;;;;;;;;;;;-145.18;100.00;46830.34;5054782;28;19928;-71
2022/08/14 10:55:14;;;;;;;;;;;;;;;-145.18;100.00;46820.56;5053910;28;20282;-71
2022/08/14 10:57:46;;;;;;;;;;;;;;;-145.18;100.00;46840.09;5054711;28;20416;-71
2022/08/14 11:00:13;;;;;;;;;;;;;;;-145.18;100.00;46828.38;5053979;28;20007;-71
2022/08/14 11:02:39;;;;;;;;;;;;;;;-145.18;100.00;46832.28;5053816;28;19929;-71
2022/08/14 11:05:11;;;;;;;;;;;;;;;-145.18;100.00;46828.38;5053829;28;19921;-71
2022/08/14 11:07:38;;;;;;;;;;;;;;;-145.18;94.34;46828.38;5054784;28;19917;-71
2022/08/14 11:10:08;;;;;;;;;;;;;;;-145.18;100.00;46826.44;5053579;28;20292;-71
2022/08/14 11:12:46;;;;;;;;;;;;;;;-145.18;100.00;46816.66;5054423;28;20356;-71
2022/08/14 11:15:12;;;;;;;;;;;;;;;-145.18;100.00;46820.56;5053674;28;19963;-71
2022/08/14 11:17:38;;;;;;;;;;;;;;;-145.18;100.00;46810.81;5054344;28;19964;-71
2022/08/14 11:20:05;;;;;;;;;;;;;;;-145.18;96.38;46808.84;5053375;28;19975;-71
2022/08/14 11:22:31;;;;;;;;;;;;;;;-145.18;94.25;46818.63;5054275;28;20020;-71
2022/08/14 11:25:01;;;;;;;;;;;;;;;-145.18;94.43;46816.66;5053657;28;19916;-71
2022/08/14 11:27:27;;;;;;;;;;;;;;;-145.18;90.28;46808.84;5054366;28;20046;-71
2022/08/14 11:29:52;;;;;;;;;;;;;;;-145.18;84.44;46797.13;5053847;28;19924;-71
2022/08/14 11:32:18;;;;;;;;;;;;;;;-145.18;78.29;46801.03;5054091;28;19972;-71
2022/08/14 11:34:44;;;;;;;;;;;;;;;-145.18;76.41;46779.56;5053819;28;19920;-71
2022/08/14 11:37:10;;;;;;;;;;;;;;;-145.18;84.07;46791.28;5053642;28;19970;-71
2022/08/14 11:39:35;;;;;;;;;;;;;;;-145.18;81.96;46795.19;5053455;28;19978;-71
2022/08/14 11:42:02;;;;;;;;;;;;;;;-145.18;87.18;46803.00;5053258;28;19991;-71
2022/08/14 11:44:28;;;;;;;;;;;;;;;-145.18;82.78;46791.28;5053376;28;19920;-71
2022/08/14 11:46:53;;;;;;;;;;;;;;;-145.18;79.62;46791.28;5053746;28;19932;-71
2022/08/14 11:49:29;;;;;;;;;;;;;;;-145.18;75.89;46793.22;5052839;28;20344;-71
2022/08/14 11:51:55;;;;;;;;;;;;;;;-145.18;76.57;46799.09;5053866;28;20074;-71
2022/08/14 11:54:21;;;;;;;;;;;;;;;-145.18;72.97;46795.19;5053020;28;20469;-71
2022/08/14 11:56:50;;;;;;;;;;;;;;;-145.18;74.06;46789.31;5053577;28;20019;-71
2022/08/14 11:59:16;;;;;;;;;;;;;;;-145.18;71.55;46789.31;5052759;28;19920;-71
2022/08/14 12:01:45;;;;;;;;;;;;;;;-145.18;65.21;46771.75;5053190;28;20399;-71
2022/08/14 12:04:10;;;;;;;;;;;;;;;-145.18;62.73;46748.28;5052820;28;19921;-71
2022/08/14 12:06:52;;;;;;;;;;;;;;;-145.18;64.91;46761.97;5052152;28;20297;-71
2022/08/14 12:09:44;;;;;;;;;;;;;;;-145.18;64.80;46750.25;5052904;28;19970;-72
2022/08/14 12:12:17;;;;;;;;;;;;;;;-145.18;61.67;46746.34;5050778;28;20332;-71
2022/08/14 12:14:48;;;;;;;;;;;;;;;-145.18;60.78;46746.34;5052773;28;19924;-71
2022/08/14 12:17:13;;;;;;;;;;;;;;;-145.18;61.51;46742.44;5053217;28;19952;-71
2022/08/14 12:19:43;;;;;;;;;;;;;;;-145.18;52.83;46730.72;5052711;28;20348;-71
2022/08/14 12:22:08;;;;;;;;;;;;;;;-145.18;50.25;46715.09;5052723;28;19927;-71
2022/08/14 12:24:33;;;;;;;;;;;;;;;-145.18;47.48;46703.38;5052643;28;19916;-72
2022/08/14 12:26:59;;;;;;;;;;;;;;;-145.18;55.27;46799.09;5052986;28;19931;-72
2022/08/14 12:29:24;;;;;;;;;;;;;;;-145.18;55.48;46810.81;5052135;28;19927;-71
2022/08/14 12:32:03;;;;;;;;;;;;;;;-145.18;55.48;46777.59;5052894;28;19974;-71
2022/08/14 12:34:33;;;;;;;;;;;;;;;-145.18;52.45;46769.78;5052417;28;19917;-72
2022/08/14 12:37:05;;;;;;;;;;;;;;;-145.18;54.15;46820.56;5052807;28;20201;-72